Airfield :
LOGIN :

Register | Disclaimer

   EN    FR    IT 

 










Legend :    VFR   Marginal VFR   IFR   Intensive IFR   Very Intensive IFR
Visi :
Ceiling :
>= 8 km
>= 3000ft
5 to 8 km
1000 to 3000 ft
1500m to 5 km
500 to 1000 ft
800 to 1500m
200 to 500 ft
< 800m
< 200 ft
Symbols :   Thunderstorms  Fog  Heavy snow  Heavy precipitations  Wind > 20 kt
SIGMETs :     Misc.  Thunderstorms  Icing  Turbulence  Mountain Waves  Volcanic Ashes






- Airport Elevation : 2731 ft
- IATA code : LPY


LFHP - Le Puy Loudes

CURRENT METAR :
  • 131030Z AUTO VRB05KT 9999 BKN039 BKN049 BKN060 26/16 Q1018

EXPIRED METARs :
  • 131000Z AUTO 21005KT 120V260 9999 BKN036 OVC150 24/15 Q1018
  • 130930Z AUTO 18005KT 090V230 9999 BKN033 BKN040 BKN140 23/15 Q1018
  • 130900Z AUTO 19006KT 130V250 9999 FEW030 BKN140 23/16 Q1018
  • 130830Z AUTO VRB03KT 9999 FEW029 BKN120 22/15 Q1018
  • 130800Z AUTO 32003KT 280V360 CAVOK 20/14 Q1018

Expired Forecast.



MET'MAP, your aeronautical weather chart ! - Copyright ORBIFLY December 2007 - Disclaimer

ORBIFLY MET'MAP TEAM :

Programming & Development : Alexandra Zaïnal
Concept & original design : Baudouin d'Aumeries
Assistance for programming : Marc-Olivier Méhu
Technical & hardware support : Manuel Goepfert

Contact : metmap@orbifly.com




SOURCES & CREDITS :

   NOAA